sensor_id;sensor_type;location;lat;lon;timestamp;P1;durP1;ratioP1;P2;durP2;ratioP2
63286;SDS011;49410;55.708;37.522;2022-09-09T00:04:43;5.57;;;1.77;;
63286;SDS011;49410;55.708;37.522;2022-09-09T00:07:29;5.25;;;2.00;;
63286;SDS011;49410;55.708;37.522;2022-09-09T00:18:17;4.68;;;2.00;;
63286;SDS011;49410;55.708;37.522;2022-09-09T00:20:57;4.53;;;2.00;;
63286;SDS011;49410;55.708;37.522;2022-09-09T00:23:35;4.32;;;1.80;;
63286;SDS011;49410;55.708;37.522;2022-09-09T00:28:45;5.50;;;2.38;;
63286;SDS011;49410;55.708;37.522;2022-09-09T00:31:21;5.57;;;1.75;;
63286;SDS011;49410;55.708;37.522;2022-09-09T00:33:50;5.95;;;1.98;;
63286;SDS011;49410;55.708;37.522;2022-09-09T00:36:18;6.07;;;1.90;;
63286;SDS011;49410;55.708;37.522;2022-09-09T00:38:52;6.63;;;2.72;;
63286;SDS011;49410;55.708;37.522;2022-09-09T00:41:22;5.53;;;1.92;;
63286;SDS011;49410;55.708;37.522;2022-09-09T00:43:57;5.68;;;1.73;;
63286;SDS011;49410;55.708;37.522;2022-09-09T00:46:41;5.90;;;2.00;;
63286;SDS011;49410;55.708;37.522;2022-09-09T00:57:27;8.50;;;2.22;;
63286;SDS011;49410;55.708;37.522;2022-09-09T01:05:49;5.57;;;2.22;;
63286;SDS011;49410;55.708;37.522;2022-09-09T01:11:20;6.32;;;1.92;;
63286;SDS011;49410;55.708;37.522;2022-09-09T01:13:56;4.90;;;2.03;;
63286;SDS011;49410;55.708;37.522;2022-09-09T01:16:29;5.70;;;1.70;;
63286;SDS011;49410;55.708;37.522;2022-09-09T01:18:56;6.20;;;1.90;;
63286;SDS011;49410;55.708;37.522;2022-09-09T01:21:31;6.78;;;2.45;;
63286;SDS011;49410;55.708;37.522;2022-09-09T01:24:18;7.50;;;2.10;;
63286;SDS011;49410;55.708;37.522;2022-09-09T01:26:45;4.93;;;2.05;;
63286;SDS011;49410;55.708;37.522;2022-09-09T01:29:14;9.10;;;2.17;;
63286;SDS011;49410;55.708;37.522;2022-09-09T01:34:33;5.75;;;2.22;;
63286;SDS011;49410;55.708;37.522;2022-09-09T01:39:29;5.50;;;2.15;;
63286;SDS011;49410;55.708;37.522;2022-09-09T01:41:56;5.63;;;2.03;;
63286;SDS011;49410;55.708;37.522;2022-09-09T01:44:22;4.57;;;2.22;;
63286;SDS011;49410;55.708;37.522;2022-09-09T01:46:49;6.47;;;2.30;;
63286;SDS011;49410;55.708;37.522;2022-09-09T01:49:15;5.57;;;2.05;;
63286;SDS011;49410;55.708;37.522;2022-09-09T01:51:42;6.30;;;2.67;;
63286;SDS011;49410;55.708;37.522;2022-09-09T01:54:09;6.38;;;2.38;;
63286;SDS011;49410;55.708;37.522;2022-09-09T02:01:46;5.82;;;2.72;;
63286;SDS011;49410;55.708;37.522;2022-09-09T02:04:37;6.10;;;2.00;;
63286;SDS011;49410;55.708;37.522;2022-09-09T02:07:17;7.28;;;2.47;;
63286;SDS011;49410;55.708;37.522;2022-09-09T02:10:09;5.45;;;2.47;;
63286;SDS011;49410;55.708;37.522;2022-09-09T02:12:49;6.05;;;2.58;;
63286;SDS011;49410;55.708;37.522;2022-09-09T02:15:26;6.15;;;2.20;;
63286;SDS011;49410;55.708;37.522;2022-09-09T02:17:53;9.45;;;2.30;;
63286;SDS011;49410;55.708;37.522;2022-09-09T02:20:22;6.88;;;2.70;;
63286;SDS011;49410;55.708;37.522;2022-09-09T02:22:52;5.80;;;2.00;;
63286;SDS011;49410;55.708;37.522;2022-09-09T02:25:19;7.05;;;2.63;;
63286;SDS011;49410;55.708;37.522;2022-09-09T02:27:47;6.00;;;2.60;;
63286;SDS011;49410;55.708;37.522;2022-09-09T02:30:15;6.18;;;2.20;;
63286;SDS011;49410;55.708;37.522;2022-09-09T02:32:42;7.90;;;2.35;;
63286;SDS011;49410;55.708;37.522;2022-09-09T02:35:10;9.93;;;2.53;;
63286;SDS011;49410;55.708;37.522;2022-09-09T02:37:40;7.60;;;2.90;;
63286;SDS011;49410;55.708;37.522;2022-09-09T02:40:08;5.60;;;2.30;;
63286;SDS011;49410;55.708;37.522;2022-09-09T02:42:40;6.25;;;2.38;;
63286;SDS011;49410;55.708;37.522;2022-09-09T02:45:07;6.70;;;2.70;;
63286;SDS011;49410;55.708;37.522;2022-09-09T02:47:35;4.97;;;2.50;;
63286;SDS011;49410;55.708;37.522;2022-09-09T02:50:06;5.60;;;2.40;;
63286;SDS011;49410;55.708;37.522;2022-09-09T02:55:48;7.07;;;2.38;;
63286;SDS011;49410;55.708;37.522;2022-09-09T02:58:26;5.43;;;2.28;;
63286;SDS011;49410;55.708;37.522;2022-09-09T03:00:52;6.38;;;2.95;;
63286;SDS011;49410;55.708;37.522;2022-09-09T03:03:18;5.82;;;2.22;;
63286;SDS011;49410;55.708;37.522;2022-09-09T03:05:45;5.40;;;2.17;;
63286;SDS011;49410;55.708;37.522;2022-09-09T03:08:11;7.55;;;2.80;;
63286;SDS011;49410;55.708;37.522;2022-09-09T03:10:38;5.50;;;2.55;;
63286;SDS011;49410;55.708;37.522;2022-09-09T03:13:04;6.15;;;2.53;;
63286;SDS011;49410;55.708;37.522;2022-09-09T03:15:31;4.85;;;2.05;;
63286;SDS011;49410;55.708;37.522;2022-09-09T03:17:58;6.80;;;3.00;;
63286;SDS011;49410;55.708;37.522;2022-09-09T03:20:24;5.32;;;2.70;;
63286;SDS011;49410;55.708;37.522;2022-09-09T03:22:51;6.53;;;2.53;;
63286;SDS011;49410;55.708;37.522;2022-09-09T03:25:21;6.35;;;2.92;;
63286;SDS011;49410;55.708;37.522;2022-09-09T03:27:51;8.88;;;2.38;;
63286;SDS011;49410;55.708;37.522;2022-09-09T03:30:20;6.65;;;2.53;;
63286;SDS011;49410;55.708;37.522;2022-09-09T03:32:46;6.22;;;2.42;;
63286;SDS011;49410;55.708;37.522;2022-09-09T03:35:13;6.63;;;2.88;;
63286;SDS011;49410;55.708;37.522;2022-09-09T03:37:38;7.55;;;2.15;;
63286;SDS011;49410;55.708;37.522;2022-09-09T03:40:04;5.93;;;2.30;;
63286;SDS011;49410;55.708;37.522;2022-09-09T03:42:31;5.90;;;2.28;;
63286;SDS011;49410;55.708;37.522;2022-09-09T03:44:57;6.25;;;2.60;;
63286;SDS011;49410;55.708;37.522;2022-09-09T03:47:23;5.45;;;1.90;;
63286;SDS011;49410;55.708;37.522;2022-09-09T03:49:48;6.32;;;2.53;;
63286;SDS011;49410;55.708;37.522;2022-09-09T03:52:14;4.95;;;2.22;;
63286;SDS011;49410;55.708;37.522;2022-09-09T03:54:41;6.20;;;2.20;;
63286;SDS011;49410;55.708;37.522;2022-09-09T03:57:08;7.82;;;2.40;;
63286;SDS011;49410;55.708;37.522;2022-09-09T03:59:34;5.38;;;2.70;;
63286;SDS011;49410;55.708;37.522;2022-09-09T04:02:00;5.30;;;2.50;;
63286;SDS011;49410;55.708;37.522;2022-09-09T04:04:26;5.90;;;2.20;;
63286;SDS011;49410;55.708;37.522;2022-09-09T04:06:52;8.45;;;2.42;;
63286;SDS011;49410;55.708;37.522;2022-09-09T04:09:18;6.72;;;2.80;;
63286;SDS011;49410;55.708;37.522;2022-09-09T04:11:43;5.57;;;2.22;;
63286;SDS011;49410;55.708;37.522;2022-09-09T04:14:10;6.05;;;2.15;;
63286;SDS011;49410;55.708;37.522;2022-09-09T04:16:35;5.68;;;2.65;;
63286;SDS011;49410;55.708;37.522;2022-09-09T04:19:02;6.32;;;2.28;;
63286;SDS011;49410;55.708;37.522;2022-09-09T04:21:29;8.88;;;2.72;;
63286;SDS011;49410;55.708;37.522;2022-09-09T04:23:56;8.23;;;2.75;;
63286;SDS011;49410;55.708;37.522;2022-09-09T04:26:21;5.35;;;2.42;;
63286;SDS011;49410;55.708;37.522;2022-09-09T04:28:47;6.85;;;2.45;;
63286;SDS011;49410;55.708;37.522;2022-09-09T04:31:14;6.47;;;2.28;;
63286;SDS011;49410;55.708;37.522;2022-09-09T04:33:40;5.13;;;2.13;;
63286;SDS011;49410;55.708;37.522;2022-09-09T04:36:06;6.40;;;2.05;;
63286;SDS011;49410;55.708;37.522;2022-09-09T04:38:31;7.30;;;2.25;;
63286;SDS011;49410;55.708;37.522;2022-09-09T04:40:57;7.28;;;2.40;;
63286;SDS011;49410;55.708;37.522;2022-09-09T04:43:22;6.18;;;2.33;;
63286;SDS011;49410;55.708;37.522;2022-09-09T04:45:51;7.70;;;2.22;;
63286;SDS011;49410;55.708;37.522;2022-09-09T04:48:16;6.80;;;2.13;;
63286;SDS011;49410;55.708;37.522;2022-09-09T04:50:42;5.93;;;1.98;;
63286;SDS011;49410;55.708;37.522;2022-09-09T04:53:07;7.13;;;1.85;;
63286;SDS011;49410;55.708;37.522;2022-09-09T04:55:33;5.00;;;2.20;;
63286;SDS011;49410;55.708;37.522;2022-09-09T04:58:06;5.75;;;2.25;;
63286;SDS011;49410;55.708;37.522;2022-09-09T05:00:32;6.10;;;2.03;;
63286;SDS011;49410;55.708;37.522;2022-09-09T05:02:59;7.13;;;2.42;;
63286;SDS011;49410;55.708;37.522;2022-09-09T05:05:29;8.32;;;2.50;;
63286;SDS011;49410;55.708;37.522;2022-09-09T05:07:54;5.53;;;2.25;;
63286;SDS011;49410;55.708;37.522;2022-09-09T05:10:19;6.93;;;2.30;;
63286;SDS011;49410;55.708;37.522;2022-09-09T05:12:51;7.28;;;2.20;;
63286;SDS011;49410;55.708;37.522;2022-09-09T05:15:17;9.13;;;2.20;;
63286;SDS011;49410;55.708;37.522;2022-09-09T05:17:43;8.70;;;2.08;;
63286;SDS011;49410;55.708;37.522;2022-09-09T05:20:08;5.32;;;2.00;;
63286;SDS011;49410;55.708;37.522;2022-09-09T05:22:33;10.10;;;2.10;;
63286;SDS011;49410;55.708;37.522;2022-09-09T05:24:59;6.00;;;2.00;;
63286;SDS011;49410;55.708;37.522;2022-09-09T05:27:25;6.10;;;2.05;;
63286;SDS011;49410;55.708;37.522;2022-09-09T05:29:50;6.97;;;1.95;;
63286;SDS011;49410;55.708;37.522;2022-09-09T05:32:15;7.03;;;1.90;;
63286;SDS011;49410;55.708;37.522;2022-09-09T05:34:42;6.00;;;2.03;;
63286;SDS011;49410;55.708;37.522;2022-09-09T05:37:07;5.63;;;1.90;;
63286;SDS011;49410;55.708;37.522;2022-09-09T05:39:33;4.70;;;1.80;;
63286;SDS011;49410;55.708;37.522;2022-09-09T05:41:58;5.93;;;1.63;;
63286;SDS011;49410;55.708;37.522;2022-09-09T05:44:24;4.22;;;1.60;;
63286;SDS011;49410;55.708;37.522;2022-09-09T05:46:52;5.15;;;1.80;;
63286;SDS011;49410;55.708;37.522;2022-09-09T05:49:19;6.20;;;1.95;;
63286;SDS011;49410;55.708;37.522;2022-09-09T05:51:44;4.25;;;1.50;;
63286;SDS011;49410;55.708;37.522;2022-09-09T05:54:10;4.97;;;1.73;;
63286;SDS011;49410;55.708;37.522;2022-09-09T05:56:36;6.03;;;1.70;;
63286;SDS011;49410;55.708;37.522;2022-09-09T05:59:01;5.50;;;1.70;;
63286;SDS011;49410;55.708;37.522;2022-09-09T06:01:28;12.20;;;1.90;;
63286;SDS011;49410;55.708;37.522;2022-09-09T06:03:56;9.68;;;1.75;;
63286;SDS011;49410;55.708;37.522;2022-09-09T06:06:23;6.28;;;1.75;;
63286;SDS011;49410;55.708;37.522;2022-09-09T06:08:56;6.05;;;1.75;;
63286;SDS011;49410;55.708;37.522;2022-09-09T06:11:27;6.28;;;1.70;;
63286;SDS011;49410;55.708;37.522;2022-09-09T06:13:57;4.35;;;1.50;;
63286;SDS011;49410;55.708;37.522;2022-09-09T06:16:24;5.07;;;1.50;;
63286;SDS011;49410;55.708;37.522;2022-09-09T06:18:52;4.32;;;1.70;;
63286;SDS011;49410;55.708;37.522;2022-09-09T06:21:20;4.47;;;1.40;;
63286;SDS011;49410;55.708;37.522;2022-09-09T06:23:47;7.57;;;1.50;;
63286;SDS011;49410;55.708;37.522;2022-09-09T06:26:14;5.13;;;1.38;;
63286;SDS011;49410;55.708;37.522;2022-09-09T06:28:45;3.47;;;1.33;;
63286;SDS011;49410;55.708;37.522;2022-09-09T06:31:11;3.10;;;1.30;;
63286;SDS011;49410;55.708;37.522;2022-09-09T06:33:39;7.32;;;1.20;;
63286;SDS011;49410;55.708;37.522;2022-09-09T06:36:16;4.78;;;1.42;;
63286;SDS011;49410;55.708;37.522;2022-09-09T06:38:43;3.15;;;1.20;;
63286;SDS011;49410;55.708;37.522;2022-09-09T06:41:09;5.10;;;1.40;;
63286;SDS011;49410;55.708;37.522;2022-09-09T06:43:36;3.45;;;1.10;;
63286;SDS011;49410;55.708;37.522;2022-09-09T06:46:06;5.30;;;1.45;;
63286;SDS011;49410;55.708;37.522;2022-09-09T06:48:35;3.70;;;1.10;;
63286;SDS011;49410;55.708;37.522;2022-09-09T06:53:31;2.60;;;0.98;;
63286;SDS011;49410;55.708;37.522;2022-09-09T06:56:23;4.03;;;1.00;;
63286;SDS011;49410;55.708;37.522;2022-09-09T06:58:55;5.80;;;1.48;;
63286;SDS011;49410;55.708;37.522;2022-09-09T07:01:22;2.75;;;1.00;;
63286;SDS011;49410;55.708;37.522;2022-09-09T07:04:33;4.32;;;1.73;;
63286;SDS011;49410;55.708;37.522;2022-09-09T07:06:59;2.80;;;1.10;;
63286;SDS011;49410;55.708;37.522;2022-09-09T07:09:26;4.35;;;1.35;;
63286;SDS011;49410;55.708;37.522;2022-09-09T07:11:52;4.25;;;1.20;;
63286;SDS011;49410;55.708;37.522;2022-09-09T07:14:18;3.13;;;1.00;;
63286;SDS011;49410;55.708;37.522;2022-09-09T07:16:46;3.10;;;1.05;;
63286;SDS011;49410;55.708;37.522;2022-09-09T07:19:11;5.03;;;1.05;;
63286;SDS011;49410;55.708;37.522;2022-09-09T07:21:37;1.70;;;0.77;;
63286;SDS011;49410;55.708;37.522;2022-09-09T07:24:05;4.60;;;1.15;;
63286;SDS011;49410;55.708;37.522;2022-09-09T07:26:32;2.78;;;1.10;;
63286;SDS011;49410;55.708;37.522;2022-09-09T07:28:58;2.42;;;1.00;;
63286;SDS011;49410;55.708;37.522;2022-09-09T07:31:26;4.38;;;1.00;;
63286;SDS011;49410;55.708;37.522;2022-09-09T07:33:54;4.30;;;1.20;;
63286;SDS011;49410;55.708;37.522;2022-09-09T07:36:22;3.38;;;1.10;;
63286;SDS011;49410;55.708;37.522;2022-09-09T07:38:59;3.03;;;0.90;;
63286;SDS011;49410;55.708;37.522;2022-09-09T07:41:28;5.03;;;1.02;;
63286;SDS011;49410;55.708;37.522;2022-09-09T07:43:59;3.25;;;1.00;;
63286;SDS011;49410;55.708;37.522;2022-09-09T07:46:29;2.60;;;0.98;;
63286;SDS011;49410;55.708;37.522;2022-09-09T07:48:55;4.55;;;0.98;;
63286;SDS011;49410;55.708;37.522;2022-09-09T07:51:26;2.35;;;1.20;;
63286;SDS011;49410;55.708;37.522;2022-09-09T07:53:57;2.50;;;0.90;;
63286;SDS011;49410;55.708;37.522;2022-09-09T07:56:25;2.58;;;0.88;;
63286;SDS011;49410;55.708;37.522;2022-09-09T07:58:52;1.83;;;0.85;;
63286;SDS011;49410;55.708;37.522;2022-09-09T08:01:23;2.90;;;0.90;;
63286;SDS011;49410;55.708;37.522;2022-09-09T08:03:58;2.97;;;0.80;;
63286;SDS011;49410;55.708;37.522;2022-09-09T08:06:26;2.03;;;0.88;;
63286;SDS011;49410;55.708;37.522;2022-09-09T08:08:53;3.55;;;0.77;;
63286;SDS011;49410;55.708;37.522;2022-09-09T08:11:20;2.30;;;0.90;;
63286;SDS011;49410;55.708;37.522;2022-09-09T08:13:48;3.42;;;1.10;;
63286;SDS011;49410;55.708;37.522;2022-09-09T08:16:19;3.75;;;1.27;;
63286;SDS011;49410;55.708;37.522;2022-09-09T08:18:48;6.38;;;0.93;;
63286;SDS011;49410;55.708;37.522;2022-09-09T08:24:32;2.63;;;1.02;;
63286;SDS011;49410;55.708;37.522;2022-09-09T08:26:58;5.13;;;1.10;;
63286;SDS011;49410;55.708;37.522;2022-09-09T08:29:24;4.55;;;1.05;;
63286;SDS011;49410;55.708;37.522;2022-09-09T08:31:53;3.30;;;1.20;;
63286;SDS011;49410;55.708;37.522;2022-09-09T08:34:22;4.18;;;1.08;;
63286;SDS011;49410;55.708;37.522;2022-09-09T08:36:50;5.72;;;1.20;;
63286;SDS011;49410;55.708;37.522;2022-09-09T08:39:17;2.33;;;0.90;;
63286;SDS011;49410;55.708;37.522;2022-09-09T08:55:50;3.00;;;0.90;;
63286;SDS011;49410;55.708;37.522;2022-09-09T08:58:18;3.55;;;1.02;;
63286;SDS011;49410;55.708;37.522;2022-09-09T09:03:43;4.07;;;1.40;;
63286;SDS011;49410;55.708;37.522;2022-09-09T09:11:26;3.15;;;0.98;;
63286;SDS011;49410;55.708;37.522;2022-09-09T09:13:54;3.05;;;1.10;;
63286;SDS011;49410;55.708;37.522;2022-09-09T09:16:37;3.13;;;1.17;;
63286;SDS011;49410;55.708;37.522;2022-09-09T09:19:08;3.53;;;1.50;;
63286;SDS011;49410;55.708;37.522;2022-09-09T09:21:58;2.38;;;0.90;;
63286;SDS011;49410;55.708;37.522;2022-09-09T09:24:44;2.85;;;0.90;;
63286;SDS011;49410;55.708;37.522;2022-09-09T09:29:57;2.70;;;1.00;;
63286;SDS011;49410;55.708;37.522;2022-09-09T09:32:24;3.80;;;1.10;;
63286;SDS011;49410;55.708;37.522;2022-09-09T09:34:54;4.20;;;1.10;;
63286;SDS011;49410;55.708;37.522;2022-09-09T09:37:24;4.40;;;1.10;;
63286;SDS011;49410;55.708;37.522;2022-09-09T09:39:54;3.03;;;0.98;;
63286;SDS011;49410;55.708;37.522;2022-09-09T09:42:19;5.93;;;0.93;;
63286;SDS011;49410;55.708;37.522;2022-09-09T09:44:45;3.72;;;1.17;;
63286;SDS011;49410;55.708;37.522;2022-09-09T09:47:18;4.38;;;1.20;;
63286;SDS011;49410;55.708;37.522;2022-09-09T09:49:54;2.00;;;0.90;;
63286;SDS011;49410;55.708;37.522;2022-09-09T09:52:26;4.55;;;1.33;;
63286;SDS011;49410;55.708;37.522;2022-09-09T09:54:57;2.15;;;0.95;;
63286;SDS011;49410;55.708;37.522;2022-09-09T09:57:28;3.25;;;1.02;;
63286;SDS011;49410;55.708;37.522;2022-09-09T10:00:15;2.42;;;0.93;;
63286;SDS011;49410;55.708;37.522;2022-09-09T10:02:45;4.43;;;1.27;;
63286;SDS011;49410;55.708;37.522;2022-09-09T10:05:21;3.22;;;0.85;;
63286;SDS011;49410;55.708;37.522;2022-09-09T10:08:03;2.90;;;1.00;;
63286;SDS011;49410;55.708;37.522;2022-09-09T10:13:34;4.15;;;1.27;;
63286;SDS011;49410;55.708;37.522;2022-09-09T10:19:01;3.25;;;1.30;;
63286;SDS011;49410;55.708;37.522;2022-09-09T10:21:36;4.47;;;1.20;;
63286;SDS011;49410;55.708;37.522;2022-09-09T10:53:02;3.17;;;1.10;;
63286;SDS011;49410;55.708;37.522;2022-09-09T10:57:51;3.30;;;1.00;;
63286;SDS011;49410;55.708;37.522;2022-09-09T11:00:20;5.18;;;1.10;;
63286;SDS011;49410;55.708;37.522;2022-09-09T11:03:29;4.07;;;1.55;;
63286;SDS011;49410;55.708;37.522;2022-09-09T11:06:04;4.85;;;1.30;;
63286;SDS011;49410;55.708;37.522;2022-09-09T11:08:36;5.80;;;1.30;;
63286;SDS011;49410;55.708;37.522;2022-09-09T11:11:07;5.03;;;1.40;;
63286;SDS011;49410;55.708;37.522;2022-09-09T11:14:00;4.57;;;1.40;;
63286;SDS011;49410;55.708;37.522;2022-09-09T11:21:52;3.50;;;1.20;;
63286;SDS011;49410;55.708;37.522;2022-09-09T11:26:55;3.47;;;1.10;;
63286;SDS011;49410;55.708;37.522;2022-09-09T11:40:27;2.75;;;1.00;;
63286;SDS011;49410;55.708;37.522;2022-09-09T11:43:03;3.55;;;1.13;;
63286;SDS011;49410;55.708;37.522;2022-09-09T11:45:50;3.20;;;1.15;;
63286;SDS011;49410;55.708;37.522;2022-09-09T11:48:26;2.95;;;0.95;;
63286;SDS011;49410;55.708;37.522;2022-09-09T11:51:04;2.88;;;0.95;;
63286;SDS011;49410;55.708;37.522;2022-09-09T11:53:33;4.47;;;1.30;;
63286;SDS011;49410;55.708;37.522;2022-09-09T11:56:01;5.93;;;1.20;;
63286;SDS011;49410;55.708;37.522;2022-09-09T11:58:39;2.67;;;1.00;;
63286;SDS011;49410;55.708;37.522;2022-09-09T12:01:29;3.25;;;0.90;;
63286;SDS011;49410;55.708;37.522;2022-09-09T12:06:46;5.45;;;1.10;;
63286;SDS011;49410;55.708;37.522;2022-09-09T12:11:52;2.72;;;0.90;;
63286;SDS011;49410;55.708;37.522;2022-09-09T12:19:39;3.35;;;1.10;;
63286;SDS011;49410;55.708;37.522;2022-09-09T12:33:20;5.13;;;1.30;;
63286;SDS011;49410;55.708;37.522;2022-09-09T12:35:52;6.38;;;1.20;;
63286;SDS011;49410;55.708;37.522;2022-09-09T12:38:27;4.07;;;1.00;;
63286;SDS011;49410;55.708;37.522;2022-09-09T12:40:59;2.45;;;0.90;;
63286;SDS011;49410;55.708;37.522;2022-09-09T12:43:26;3.00;;;1.00;;
63286;SDS011;49410;55.708;37.522;2022-09-09T12:45:54;3.40;;;1.20;;
63286;SDS011;49410;55.708;37.522;2022-09-09T12:48:29;2.88;;;0.95;;
63286;SDS011;49410;55.708;37.522;2022-09-09T12:51:19;2.60;;;1.00;;
63286;SDS011;49410;55.708;37.522;2022-09-09T12:53:50;6.25;;;1.35;;
63286;SDS011;49410;55.708;37.522;2022-09-09T12:56:20;3.17;;;1.08;;
63286;SDS011;49410;55.708;37.522;2022-09-09T12:58:49;3.97;;;1.08;;
63286;SDS011;49410;55.708;37.522;2022-09-09T13:01:21;3.00;;;0.90;;
63286;SDS011;49410;55.708;37.522;2022-09-09T13:03:54;3.05;;;1.00;;
63286;SDS011;49410;55.708;37.522;2022-09-09T13:06:39;4.65;;;1.33;;
63286;SDS011;49410;55.708;37.522;2022-09-09T13:09:04;7.10;;;1.10;;
63286;SDS011;49410;55.708;37.522;2022-09-09T13:11:42;3.10;;;1.08;;
63286;SDS011;49410;55.708;37.522;2022-09-09T13:14:16;4.05;;;1.10;;
63286;SDS011;49410;55.708;37.522;2022-09-09T13:16:54;3.63;;;1.10;;
63286;SDS011;49410;55.708;37.522;2022-09-09T13:22:20;2.53;;;0.90;;
63286;SDS011;49410;55.708;37.522;2022-09-09T13:27:36;2.80;;;1.05;;
63286;SDS011;49410;55.708;37.522;2022-09-09T13:30:24;3.08;;;1.00;;
63286;SDS011;49410;55.708;37.522;2022-09-09T13:35:34;5.15;;;1.10;;
63286;SDS011;49410;55.708;37.522;2022-09-09T13:38:13;4.97;;;1.15;;
63286;SDS011;49410;55.708;37.522;2022-09-09T13:40:40;3.78;;;1.10;;
63286;SDS011;49410;55.708;37.522;2022-09-09T13:43:05;2.67;;;0.88;;
63286;SDS011;49410;55.708;37.522;2022-09-09T13:45:52;1.95;;;0.85;;
63286;SDS011;49410;55.708;37.522;2022-09-09T13:48:21;4.43;;;0.95;;
63286;SDS011;49410;55.708;37.522;2022-09-09T13:50:58;1.77;;;0.80;;
63286;SDS011;49410;55.708;37.522;2022-09-09T13:53:25;3.90;;;1.05;;
63286;SDS011;49410;55.708;37.522;2022-09-09T13:55:51;2.78;;;0.90;;
63286;SDS011;49410;55.708;37.522;2022-09-09T13:58:17;4.18;;;1.00;;
63286;SDS011;49410;55.708;37.522;2022-09-09T14:00:44;5.95;;;0.98;;
63286;SDS011;49410;55.708;37.522;2022-09-09T14:03:11;3.30;;;1.20;;
63286;SDS011;49410;55.708;37.522;2022-09-09T14:05:36;5.10;;;1.10;;
63286;SDS011;49410;55.708;37.522;2022-09-09T14:08:05;4.80;;;1.05;;
63286;SDS011;49410;55.708;37.522;2022-09-09T14:10:33;2.50;;;0.98;;
63286;SDS011;49410;55.708;37.522;2022-09-09T14:13:02;3.13;;;1.23;;
63286;SDS011;49410;55.708;37.522;2022-09-09T14:15:28;2.85;;;1.10;;
63286;SDS011;49410;55.708;37.522;2022-09-09T14:17:54;2.72;;;1.05;;
63286;SDS011;49410;55.708;37.522;2022-09-09T14:20:19;3.90;;;1.50;;
63286;SDS011;49410;55.708;37.522;2022-09-09T14:22:45;5.07;;;1.50;;
63286;SDS011;49410;55.708;37.522;2022-09-09T14:25:11;4.18;;;1.38;;
63286;SDS011;49410;55.708;37.522;2022-09-09T14:27:40;4.70;;;1.63;;
63286;SDS011;49410;55.708;37.522;2022-09-09T14:30:07;6.18;;;1.73;;
63286;SDS011;49410;55.708;37.522;2022-09-09T14:32:34;5.93;;;2.17;;
63286;SDS011;49410;55.708;37.522;2022-09-09T14:34:59;5.18;;;1.85;;
63286;SDS011;49410;55.708;37.522;2022-09-09T14:37:25;6.25;;;1.70;;
63286;SDS011;49410;55.708;37.522;2022-09-09T14:39:52;5.85;;;1.77;;
63286;SDS011;49410;55.708;37.522;2022-09-09T14:42:18;4.70;;;1.65;;
63286;SDS011;49410;55.708;37.522;2022-09-09T14:44:44;7.30;;;1.90;;
63286;SDS011;49410;55.708;37.522;2022-09-09T14:47:10;8.48;;;3.10;;
63286;SDS011;49410;55.708;37.522;2022-09-09T14:49:35;11.80;;;2.58;;
63286;SDS011;49410;55.708;37.522;2022-09-09T14:52:02;6.15;;;2.42;;
63286;SDS011;49410;55.708;37.522;2022-09-09T14:54:28;7.32;;;2.30;;
63286;SDS011;49410;55.708;37.522;2022-09-09T14:56:54;9.20;;;3.22;;
63286;SDS011;49410;55.708;37.522;2022-09-09T14:59:19;7.53;;;2.80;;
63286;SDS011;49410;55.708;37.522;2022-09-09T15:01:45;6.57;;;2.10;;
63286;SDS011;49410;55.708;37.522;2022-09-09T15:04:11;4.90;;;1.80;;
63286;SDS011;49410;55.708;37.522;2022-09-09T15:06:39;7.03;;;1.70;;
63286;SDS011;49410;55.708;37.522;2022-09-09T15:09:05;5.03;;;1.70;;
63286;SDS011;49410;55.708;37.522;2022-09-09T15:11:32;4.30;;;1.60;;
63286;SDS011;49410;55.708;37.522;2022-09-09T15:14:02;4.30;;;1.50;;
63286;SDS011;49410;55.708;37.522;2022-09-09T15:16:28;4.82;;;1.73;;
63286;SDS011;49410;55.708;37.522;2022-09-09T15:18:56;3.80;;;1.55;;
63286;SDS011;49410;55.708;37.522;2022-09-09T15:21:23;4.65;;;1.45;;
63286;SDS011;49410;55.708;37.522;2022-09-09T15:23:54;4.28;;;1.52;;
63286;SDS011;49410;55.708;37.522;2022-09-09T15:26:20;4.63;;;1.55;;
63286;SDS011;49410;55.708;37.522;2022-09-09T15:28:46;4.95;;;1.60;;
63286;SDS011;49410;55.708;37.522;2022-09-09T15:31:13;5.00;;;1.60;;
63286;SDS011;49410;55.708;37.522;2022-09-09T15:33:46;5.60;;;1.63;;
63286;SDS011;49410;55.708;37.522;2022-09-09T15:36:25;3.13;;;1.30;;
63286;SDS011;49410;55.708;37.522;2022-09-09T15:38:54;7.07;;;1.63;;
63286;SDS011;49410;55.708;37.522;2022-09-09T15:41:20;3.95;;;1.27;;
63286;SDS011;49410;55.708;37.522;2022-09-09T15:43:50;4.90;;;1.80;;
63286;SDS011;49410;55.708;37.522;2022-09-09T15:48:52;4.75;;;1.83;;
63286;SDS011;49410;55.708;37.522;2022-09-09T15:51:19;3.53;;;1.30;;
63286;SDS011;49410;55.708;37.522;2022-09-09T15:53:45;3.38;;;1.30;;
63286;SDS011;49410;55.708;37.522;2022-09-09T15:56:11;5.13;;;1.50;;
63286;SDS011;49410;55.708;37.522;2022-09-09T15:58:36;5.38;;;1.42;;
63286;SDS011;49410;55.708;37.522;2022-09-09T16:01:05;6.45;;;2.17;;
63286;SDS011;49410;55.708;37.522;2022-09-09T16:03:38;7.90;;;1.70;;
63286;SDS011;49410;55.708;37.522;2022-09-09T16:06:07;7.22;;;1.70;;
63286;SDS011;49410;55.708;37.522;2022-09-09T16:08:34;6.43;;;1.92;;
63286;SDS011;49410;55.708;37.522;2022-09-09T16:11:07;8.80;;;1.98;;
63286;SDS011;49410;55.708;37.522;2022-09-09T16:13:39;6.97;;;1.95;;
63286;SDS011;49410;55.708;37.522;2022-09-09T16:16:05;4.93;;;1.75;;
63286;SDS011;49410;55.708;37.522;2022-09-09T16:18:46;4.78;;;2.00;;
63286;SDS011;49410;55.708;37.522;2022-09-09T16:21:15;5.70;;;1.90;;
63286;SDS011;49410;55.708;37.522;2022-09-09T16:23:43;6.28;;;1.67;;
63286;SDS011;49410;55.708;37.522;2022-09-09T16:26:13;4.53;;;1.85;;
63286;SDS011;49410;55.708;37.522;2022-09-09T16:28:40;8.18;;;2.20;;
63286;SDS011;49410;55.708;37.522;2022-09-09T16:31:10;9.98;;;2.20;;
63286;SDS011;49410;55.708;37.522;2022-09-09T16:33:39;6.07;;;2.22;;
63286;SDS011;49410;55.708;37.522;2022-09-09T16:36:09;7.05;;;2.20;;
63286;SDS011;49410;55.708;37.522;2022-09-09T16:38:40;6.18;;;1.77;;
63286;SDS011;49410;55.708;37.522;2022-09-09T16:41:06;5.85;;;1.80;;
63286;SDS011;49410;55.708;37.522;2022-09-09T16:43:34;6.20;;;2.35;;
63286;SDS011;49410;55.708;37.522;2022-09-09T16:46:03;5.80;;;2.45;;
63286;SDS011;49410;55.708;37.522;2022-09-09T16:48:41;8.40;;;2.30;;
63286;SDS011;49410;55.708;37.522;2022-09-09T16:51:12;8.55;;;2.08;;
63286;SDS011;49410;55.708;37.522;2022-09-09T16:53:40;6.25;;;2.53;;
63286;SDS011;49410;55.708;37.522;2022-09-09T16:56:08;7.57;;;1.98;;
63286;SDS011;49410;55.708;37.522;2022-09-09T16:58:38;7.60;;;2.83;;
63286;SDS011;49410;55.708;37.522;2022-09-09T17:01:04;7.35;;;2.42;;
63286;SDS011;49410;55.708;37.522;2022-09-09T17:03:30;8.15;;;2.47;;
63286;SDS011;49410;55.708;37.522;2022-09-09T17:05:59;7.13;;;2.10;;
63286;SDS011;49410;55.708;37.522;2022-09-09T17:08:29;6.97;;;2.15;;
63286;SDS011;49410;55.708;37.522;2022-09-09T17:10:55;6.15;;;2.88;;
63286;SDS011;49410;55.708;37.522;2022-09-09T17:13:21;7.43;;;2.70;;
63286;SDS011;49410;55.708;37.522;2022-09-09T17:15:47;8.35;;;2.80;;
63286;SDS011;49410;55.708;37.522;2022-09-09T17:18:12;8.77;;;2.13;;
63286;SDS011;49410;55.708;37.522;2022-09-09T17:20:38;7.60;;;2.20;;
63286;SDS011;49410;55.708;37.522;2022-09-09T17:23:05;8.07;;;2.00;;
63286;SDS011;49410;55.708;37.522;2022-09-09T17:25:32;6.72;;;2.67;;
63286;SDS011;49410;55.708;37.522;2022-09-09T17:27:58;6.15;;;2.38;;
63286;SDS011;49410;55.708;37.522;2022-09-09T17:30:24;9.60;;;1.95;;
63286;SDS011;49410;55.708;37.522;2022-09-09T17:32:50;5.55;;;2.28;;